Hauptseite
METAR-TAF:

METAR-TAF

Flughäfen :

Florenz, Italien

Flughafen Florenz

Breite: 43-48N, Länge: 011-12E, Höhe: 40 m

Beobachtung

Neuester Wetterbericht von vor 20 Minuten, um 23:50 UTC
Wind 4 kt aus Nord/Nordost
Temperatur 3°C
Luftfeuchtigkeit 100%
Luftdruck 1018 hPa
Sichtweite: 8000 m
Flacher Nebel

METAR: LIRQ 192350Z 02004KT 8000 MIFG NSC 03/03 Q1018

Zeit: 01:10 (00:10 UTC)

Prognose

Neuester Wetterbericht von vor 1 Stunde und 10 Minuten, um 23:00 UTC
Gültige Prognose vom 20 um 00 UTC bis 20 um 24 UTC
Wind 5 kt aus unterschiedlichen Richtungen
Sichtweite: 6000 m
Zeitweise
vom 20 um 00 UTC bis 20 um 03 UTC
Sichtweite: 2000 m
feuchter Dunst

TAF: LIRQ 192300Z 2000/2024 VRB05KT 6000 NSC TEMPO 2000/2003 2000 BR

Wetterbeobachtungen und Prognosen von mehr als 4000 Flughäfen (METAR und TAF Bericht).

Die verfügbaren Stationen werden durch gelbe und rote Markierungen auf der Karte dargestellt.

Führen Sie die Maus auf sie, um den Namen der Station zu sehen.

Darauf klicken, um die Beobachtung von Wetterbeobachtungen und Prognosen zu sehen.

Um die Karte zu ändern : klicken Sie auf den grünen Tasten mit einem schwarzen Kreuz Zum Vergrößern, auf den grünen Button mit einem Gedankenstrich zu verkleinern, oder auf die grünen Pfeile für benachbarte Karten.


METAR-TAF: